Aviation Digital Data Service (ADDS)

Output produced by METARs form (1822 UTC 22 November 2017)
found at http://www.aviationweather.gov/adds/metars/
 
ZBHH 221800Z 10002MPS CAVOK M16/M23 Q1023 NOSIG
TAF ZBHH 221502Z 2218/2318 34004MPS CAVOK TXM01/07Z TNM15/22Z
       
ZGGG 221800Z 02006MPS CAVOK 14/06 Q1021 NOSIG
TAF ZGGG 221501Z 2218/2318 36006MPS 8000 SCT040 TX18/2307Z TN14/2222Z
       
ZGSZ 221800Z 02006MPS CAVOK 15/08 Q1020 NOSIG
TAF ZGSZ 221508Z 2218/2318 02006MPS 8000 FEW030 TX19/2307Z TN14/2222Z
       
ZBTJ 221800Z 33005MPS CAVOK 01/M19 Q1026 NOSIG
TAF ZBTJ 221511Z 2218/2318 34004MPS 5000 HZ NSC TX07/2307Z TNM04/22Z 
     BECMG 2302/2303 23005MPS
       
ZBAA 221800Z 28004MPS CAVOK 00/M19 Q1026 NOSIG
TAF ZBAA 221520Z 2218/2318 29004MPS CAVOK TX06/2307Z TNM05/21Z 
     TEMPO 2303/2309 29009MPS
       
ZSFZ 221800Z 04007MPS 9999 OVC050 16/06 Q1021 NOSIG
TAF ZSFZ 221513Z 2218/2318 04007MPS 6000 BKN020 TX19/2306Z TN15/2221Z
       
ZYCC 221800Z 27003MPS CAVOK M10/M20 Q1016 NOSIG
TAF ZYCC 221310Z 2218/2318 27004MPS CAVOK TXM05/07Z TNM12/21Z
       
ZWWW 221800Z 26002MPS CAVOK M04/M07 Q1033 NOSIG
TAF ZWWW 221514Z 2218/2318 18002MPS 3500 FU NSC TX02/2308Z TNM04/23Z 
     BECMG 2302/2303 2000 FU 
     BECMG 2305/2306 36002MPS 3500 FU 
     BECMG 2312/2313 18002MPS
       
ZSAM 221800Z 36002MPS 9999 BKN050 18/10 Q1020 NOSIG
TAF ZSAM 221510Z 2218/2318 04004MPS 6000 SCT030 TX24/2306Z TN18/2221Z 
     BECMG 2302/2303 06006G12MPS
       
ZSSS 221800Z 32003MPS CAVOK 08/02 Q1025 NOSIG
TAF ZSSS 221514Z 2218/2318 34004MPS 5000 BR SCT020 TX14/2306Z TN07/2221Z
       
ZGHA 221800Z 01003MPS 6000 NSC 09/05 Q1028 NOSIG
TAF ZGHA 221447Z 2218/2318 35004MPS 3500 BR NSC TX13/2307Z TN08/2222Z
       
ZUCK 221800Z 31002MPS 280V340 3500 -RA BR FEW007 SCT030 09/08 Q1029 NOSIG
TAF ZUCK 221511Z 2218/2318 02003MPS 5000 BR SCT020 OVC040 TX10/2307Z TN08/2222Z 
     TEMPO 2218/2224 3200 -RA BR FEW004 SCT015 OVC040
       
ZWSH 221800Z AUTO 31004MPS CAVOK 00/M12 Q1031
TAF ZWSH 221514Z 2218/2318 33004MPS CAVOK TX07/2309Z TNM03/00Z 
     BECMG 2304/2305 09004MPS 
     BECMG 2313/2314 32004MPS
       
ZGKL 221800Z VRB02MPS 7000 NSC 12/04 Q1025 NOSIG
TAF ZGKL 221510Z 2218/2318 05004MPS CAVOK TX17/2307Z TN08/2223Z
       
ZSNB 221800Z 34003MPS 4000 HZ NSC 11/06 Q1025 NOSIG
TAF ZSNB 221403Z 2218/2318 34004MPS 4000 BR SCT030 TX12/2306Z TN06/2222Z
       
ZSQD 221800Z 21002MPS CAVOK M00/M05 Q1025 NOSIG
TAF ZSQD 221516Z 2218/2318 33003MPS 5000 BR NSC TX12/2306Z TNM04/21Z
       
ZSNJ 221800Z 30001MPS 9000 NSC 07/M03 Q1028 NOSIG
TAF ZSNJ 221530Z 2218/2318 34003MPS 3000 HZ NSC TX12/2307Z TN02/2221Z
       
ZSOF 221800Z 28001MPS 8000 NSC 07/M02 Q1028 NOSIG
TAF ZSOF 221501Z 2218/2318 36003MPS 4000 HZ NSC TX13/2307Z TN02/2222Z
       
ZJHK 221800Z 34005MPS 9999 BKN012 OVC026 18/15 Q1017 NOSIG
TAF ZJHK 221504Z 2218/2318 04003MPS 6000 BKN012 OVC026 TX21/2307Z TN18/2221Z
       
ZJSY 221800Z 09003MPS 9999 BKN050 22/18 Q1014 NOSIG
TAF ZJSY 221339Z 2218/2318 09004MPS 9999 SCT018 SCT040 TX29/2306Z TN21/2221Z
       
ZSPD 221800Z 33005MPS CAVOK 08/03 Q1025 NOSIG
TAF ZSPD 221515Z 2218/2318 33006MPS 5000 BR SCT020 TX13/2306Z TN07/2221Z
       
ZUUU 221800Z 22001MPS CAVOK 08/06 Q1030 NOSIG
TAF ZUUU 221401Z 2218/2318 02002MPS 3500 BR SCT050 TX13/2307Z TN06/2223Z
       
ZYHB 221800Z 25004MPS CAVOK M12/M17 Q1013 NOSIG
TAF ZYHB 221502Z 2218/2318 26004MPS 6000 SCT030 TXM08/06Z TNM17/22Z
       
ZYTX 221800Z 29002MPS CAVOK M02/M16 Q1019 NOSIG
TAF ZYTX 221513Z 2218/2318 18004MPS 6000 NSC TX01/2306Z TNM10/21Z 
     BECMG 2300/2301 28004MPS
       
ZHHH 221800Z 03001MPS CAVOK 09/M01 Q1028 NOSIG
TAF ZHHH 221359Z 2218/2318 04003MPS 3000 HZ NSC TX16/2306Z TN06/2221Z
       
ZPPP 221800Z 04006MPS 0700 R04/P2000 R03/0550N FG BKN002 OVC030 04/04 Q1024 NOSIG
TAF ZPPP 221311Z 2218/2318 04004MPS 0900 FG BKN002 OVC020 TX03/2218Z TN01/2223Z
       
ZBYN 221800Z 01002MPS 320V050 CAVOK M03/M17 Q1026 NOSIG
TAF ZBYN 221511Z 2218/2318 24004MPS 6000 NSC TX06/2307Z TNM08/22Z
       
ZGNN 221800Z 35003MPS CAVOK 15/07 Q1022 NOSIG
TAF ZGNN 221505Z 2218/2318 36003MPS 6000 BKN043 TX16/2307Z TN11/2222Z
       
ZLXY 221800Z 28002MPS CAVOK 01/M06 Q1032 NOSIG
TAF ZLXY 221504Z 2218/2318 27003MPS 3000 HZ NSC TX11/2307Z TNM03/23Z
       
ZSHC 221800Z 01005MPS 6000 FEW040 10/04 Q1026 NOSIG
TAF ZSHC 221503Z 2218/2318 34003MPS 3000 HZ NSC TX12/2306Z TN06/2221Z
       
ZHCC 221800Z 28004MPS CAVOK 06/M12 Q1028 NOSIG
TAF ZHCC 221503Z 2218/2318 29004MPS 6000 NSC TX13/2307Z TN03/2222Z
       
ZBSJ 221800Z 01002MPS CAVOK 00/M11 Q1027 NOSIG
TAF ZBSJ 221357Z 2218/2318 33004MPS 4000 BR NSC TX11/2307Z TNM02/21Z
       
ZLLL 221800Z 32002MPS CAVOK M10/M14 Q1029 NOSIG
TAF ZLLL 221511Z 2218/2318 35003MPS 6000 NSC TX04/2308Z TNM11/23Z
       
ZYTL 221800Z 32008MPS 9999 SCT026 03/M14 Q1022 NOSIG
TAF ZYTL 221513Z 2218/2318 33004G10MPS 6000 SCT030 TX05/2306Z TN00/2221Z 
     TEMPO 2218/2223 26006G12MPS 3000 -RASN BR SCT026